Liverpool John Lennon Airport

EGGP · Anglia, Wielka Brytania

Historia METAR EGGP · Liverpool John Lennon Airport

Poniżej widzisz METAR-y z ostatnich kilku dni. Wybierz rok, aby przeglądać starsze METAR-y, począwszy od roku 2007.

15 czerwca 2024

Czas Kod Pogoda Temp. Widoczność Sufit Wiatr METAR/SPECI
07:50
V
12 °C 10 km+ - 160° 160° 5 kt METAR EGGP 150650Z 16005KT 130V200 CAVOK 12/09 Q0995
07:20
V
11 °C 10 km+ - 170° 170° 5 kt METAR EGGP 150620Z 17005KT 130V190 9999 FEW045 11/08 Q0995
06:50
V
11 °C 10 km+ - 160° 160° 6 kt METAR EGGP 150550Z 16006KT 9999 FEW045 11/09 Q0995
06:20
V
10 °C 10 km+ - 160° 160° 6 kt METAR EGGP 150520Z 16006KT 130V190 9999 FEW048 10/09 Q0996
05:50
V
10 °C 10 km+ - 160° 160° 7 kt METAR EGGP 150450Z 16007KT 9999 -RA FEW048 10/08 Q0996
05:20
V
10 °C 10 km+ - 150° 150° 7 kt METAR EGGP 150420Z AUTO 15007KT 9999 -RA FEW048/// 10/09 Q0996
04:50
I
10 °C 4,7 km - 170° 170° 5 kt METAR EGGP 150350Z AUTO 17005KT 4700 RA NCD 10/09 Q0996
04:20
V
10 °C 10 km+ - 160° 160° 4 kt METAR EGGP 150320Z AUTO 16004KT 9999 NCD 10/09 Q0996
03:50
V
10 °C 10 km+ 4.700 ft 240° 240° 4 kt METAR EGGP 150250Z AUTO 24004KT 9999 OVC047/// 10/08 Q0996
03:20
V
10 °C 10 km+ 4.800 ft 240° 240° 5 kt METAR EGGP 150220Z AUTO 24005KT 9999 SCT040/// OVC048/// 10/09 Q0996
02:50
V
11 °C 10 km+ - 220° 220° 4 kt METAR EGGP 150150Z AUTO 22004KT 9999 NCD 11/09 Q0996
02:20
V
10 °C 10 km+ - 220° 220° 5 kt METAR EGGP 150120Z 22005KT 9999 FEW034 SCT040 10/09 Q0996
01:50
V
10 °C 10 km+ - 260° 260° 3 kt METAR EGGP 150050Z 26003KT 9999 -RA FEW034 SCT040 10/09 Q0996
01:20
V
11 °C 10 km+ - 240° 240° 5 kt METAR EGGP 150020Z 24005KT 9999 -RA FEW034 SCT040 11/09 Q0996
00:50
V
11 °C 10 km+ - 250° 250° 3 kt METAR EGGP 142350Z 25003KT 9999 FEW034 SCT040 11/09 Q0996
00:20
V
10 °C 10 km+ - 270° 270° 5 kt METAR EGGP 142320Z 27005KT 9999 FEW034 SCT040 10/09 Q0996

14 czerwca 2024

Czas Kod Pogoda Temp. Widoczność Sufit Wiatr METAR/SPECI
23:50
V
11 °C 10 km+ - 270° 270° 5 kt METAR EGGP 142250Z 27005KT 9999 FEW034 SCT040 11/09 Q0997
23:20
V
11 °C 10 km+ - 290° 290° 5 kt METAR EGGP 142220Z 29005KT 9999 -RA FEW034 SCT040 11/09 Q0997
22:50
V
12 °C 10 km+ - 280° 280° 5 kt METAR EGGP 142150Z 28005KT 9999 -RA FEW034 SCT040 12/09 Q0997
22:20
V
12 °C 10 km+ - 290° 290° 6 kt METAR EGGP 142120Z 29006KT 9999 -RA FEW034 SCT041 12/09 Q0997
21:50
V
13 °C 10 km+ - 250° 250° 3 kt METAR EGGP 142050Z 25003KT 9999 -RA FEW034 13/09 Q0997
21:20
V
14 °C 10 km+ - 340° 340° 3 kt METAR EGGP 142020Z 34003KT CAVOK 14/07 Q0997
20:50
V
14 °C 10 km+ - 360° 360° 4 kt METAR EGGP 141950Z 36004KT 320V030 CAVOK 14/07 Q0997
20:20
V
15 °C 10 km+ - 310° 310° 4 kt METAR EGGP 141920Z 31004KT CAVOK 15/06 Q0997
19:50
V
15 °C 10 km+ - 290° 290° 6 kt METAR EGGP 141850Z 29006KT CAVOK 15/06 Q0997
19:20
V
16 °C 10 km+ - 280° 280° 6 kt METAR EGGP 141820Z 28006KT CAVOK 16/06 Q0997
18:50
V
17 °C 10 km+ - 290° 290° 8 kt METAR EGGP 141750Z 29008KT CAVOK 17/06 Q0997
18:20
V
17 °C 10 km+ - 300° 300° 8 kt METAR EGGP 141720Z 30008KT CAVOK 17/06 Q0997
17:50
V
18 °C 10 km+ - 300° 300° 7 kt METAR EGGP 141650Z 30007KT 260V320 CAVOK 18/07 Q0997
16:20
V
17 °C 10 km+ - 280° 280° 7 kt METAR EGGP 141520Z 28007KT 250V310 9999 SCT045 17/07 Q0997
15:50
V
17 °C 10 km+ - 290° 290° 9 kt METAR EGGP 141450Z 29009KT 250V310 9999 SCT045 17/07 Q0997
15:20
V
17 °C 10 km+ - 270° 270° 10 kt METAR EGGP 141420Z 27010KT 240V300 9999 FEW048 17/07 Q0997
14:50
V
18 °C 10 km+ - 250° 250° 12 kt METAR EGGP 141350Z 25012KT 9999 FEW048 18/07 Q0997
13:50
V
16 °C 10 km+ - 290° 290° 8 kt METAR EGGP 141250Z 29008KT 260V320 9999 SCT046 16/09 Q0997
13:20
V
16 °C 10 km+ - 260° 260° 9 - 19 kt METAR EGGP 141220Z 26009G19KT 230V310 9999 -RA SCT024 SCT040 16/09 Q0997
12:50
V
15 °C 10 km+ - 240° 240° 12 kt METAR EGGP 141150Z 24012KT 9999 FEW033 SCT041 FEW050TCU 15/08 Q0997
12:20
V
16 °C 10 km+ - 240° 240° 9 kt METAR EGGP 141120Z 24009KT 200V260 9999 SCT034 FEW050TCU 16/10 Q0997
11:50
V
15 °C 10 km+ - 240° 240° 12 kt METAR EGGP 141050Z 24012KT 9999 SCT020TCU SCT040 15/09 Q0997
11:20
V
15 °C 10 km+ - 230° 230° 13 kt METAR EGGP 141020Z 23013KT 9999 SCT027 SCT040 15/09 Q0997
10:50
V
15 °C 10 km+ - 220° 220° 11 kt METAR EGGP 140950Z 22011KT 190V250 9999 SCT027 SCT040 15/10 Q0997
10:20
V
14 °C 10 km+ - 220° 220° 9 kt METAR EGGP 140920Z 22009KT 9999 SCT025 FEW045CB 14/11 Q0997
09:50
V
13 °C 10 km+ - 210° 210° 10 kt METAR EGGP 140850Z 21010KT 9999 VCSH FEW025 13/11 Q0997
09:20
M
13 °C 10 km+ 2.400 ft 200° 200° 11 kt METAR EGGP 140820Z 20011KT 9999 VCSH FEW009 BKN024 13/12 Q0997
08:50
M
13 °C 8 km 2.400 ft 200° 200° 10 kt METAR EGGP 140750Z 20010KT 8000 -RA SCT014 BKN024 13/12 Q0997 RERA
08:20
V
14 °C 10 km+ 3.800 ft 200° 200° 9 kt METAR EGGP 140720Z 20009KT 9999 9000NW -RA FEW013 SCT031 BKN038 14/12 Q0996
07:50
V
14 °C 10 km+ - 190° 190° 9 kt METAR EGGP 140650Z 19009KT 9999 VCSH SCT024 SCT041 14/12 Q0996
07:20
V
13 °C 10 km+ - 200° 200° 8 kt METAR EGGP 140620Z 20008KT 9999 SCT024 SCT038 13/12 Q0997
06:50
V
13 °C 10 km+ 4.000 ft 170° 170° 7 kt METAR EGGP 140550Z 17007KT 9999 SCT024 BKN040 13/12 Q0997
06:20
V
13 °C 10 km+ - 170° 170° 7 kt METAR EGGP 140520Z 17007KT 9999 FEW030 13/12 Q0997
05:50
V
12 °C 10 km+ - 180° 180° 8 kt METAR EGGP 140450Z 18008KT 9999 FEW046 12/11 Q0997
05:20
V
12 °C 10 km+ - 180° 180° 10 kt METAR EGGP 140420Z AUTO 18010KT 9999 SCT037/// SCT043/// 12/11 Q0997
04:50
V
13 °C 10 km+ 3.700 ft 190° 190° 12 kt METAR EGGP 140350Z AUTO 19012KT 9999 BKN037/// BKN045/// 13/12 Q0997
04:20
V
12 °C 10 km+ - 190° 190° 12 kt METAR EGGP 140320Z AUTO 19012KT 9999 SCT041/// 12/11 Q0997
03:50
V
13 °C 10 km+ - 190° 190° 12 kt METAR EGGP 140250Z AUTO 19012KT 9999 SCT044/// 13/11 Q0997
03:20
V
13 °C 10 km+ 4.400 ft 190° 190° 8 kt METAR EGGP 140220Z AUTO 19008KT 160V220 9999 BKN044/// 13/11 Q0997
02:50
V
13 °C 10 km+ 3.500 ft 200° 200° 12 kt METAR EGGP 140150Z 20012KT 9999 -RA FEW017 SCT023 BKN035 13/11 Q0998
02:20
V
13 °C 10 km+ 3.200 ft 190° 190° 9 kt METAR EGGP 140120Z 19009KT 9999 -RA BKN032 BKN041 13/12 Q0998
01:50
M
13 °C 10 km+ 2.300 ft 170° 170° 10 kt METAR EGGP 140050Z 17010KT 9999 BKN023 OVC032 13/11 Q0998
01:20
M
13 °C 10 km+ 2.000 ft 170° 170° 8 kt METAR EGGP 140020Z 17008KT 9999 SCT011 OVC020 13/11 Q0998
00:50
V
12 °C 10 km+ 4.900 ft 170° 170° 11 kt METAR EGGP 132350Z 17011KT 9999 FEW019 BKN049 12/11 Q0998
00:20
V
12 °C 10 km+ 4.900 ft 170° 170° 11 kt METAR EGGP 132320Z 17011KT 9999 FEW019 BKN049 12/11 Q0999

13 czerwca 2024

Czas Kod Pogoda Temp. Widoczność Sufit Wiatr METAR/SPECI
23:20
M
12 °C 10 km+ 2.400 ft 170° 170° 10 kt METAR EGGP 132220Z 17010KT 9999 SCT015 OVC024 12/10 Q0999
22:50
M
13 °C 10 km+ 2.400 ft 170° 170° 12 kt METAR EGGP 132150Z 17012KT 9999 SCT015 OVC024 13/10 Q0999
22:20
M
13 °C 10 km+ 2.700 ft 160° 160° 14 kt METAR EGGP 132120Z 16014KT 9999 FEW017 OVC027 13/10 Q0999
21:50
M
13 °C 10 km+ 2.900 ft 170° 170° 15 kt METAR EGGP 132050Z 17015KT 9999 BKN029 OVC034 13/10 Q1000
21:20
V
12 °C 10 km+ 3.800 ft 170° 170° 15 kt METAR EGGP 132020Z 17015KT 9999 FEW017 BKN038 12/10 Q1000
20:50
V
12 °C 10 km+ 3.800 ft 170° 170° 15 kt METAR EGGP 131950Z 17015KT 9999 FEW017 BKN038 12/10 Q1000
20:20
V
13 °C 10 km+ 4.200 ft 170° 170° 17 kt METAR EGGP 131920Z 17017KT 9999 SCT018 BKN042 13/10 Q1000
19:50
V
13 °C 10 km+ - 170° 170° 19 - 30 kt METAR EGGP 131850Z 17019G30KT 9999 FEW029 SCT043 13/09 Q1000
19:20
V
13 °C 10 km+ 4.800 ft 170° 170° 17 kt METAR EGGP 131820Z 17017KT 9999 FEW022 SCT027 BKN048 13/09 Q1001
18:20
M
13 °C 10 km+ 2.800 ft 160° 160° 18 kt METAR EGGP 131720Z 16018KT 9999 FEW021 BKN028 13/09 Q1001
17:50
M
12 °C 10 km+ 2.700 ft 160° 160° 17 - 28 kt METAR EGGP 131650Z 16017G28KT 9999 -RA SCT021 BKN027 12/09 Q1002
16:50
V
12 °C 10 km+ - 160° 160° 17 kt METAR EGGP 131550Z 16017KT 9999 -SHRA FEW040 SCT048 12/09 Q1003
16:20
V
12 °C 9 km - 150° 150° 17 kt METAR EGGP 131520Z 15017KT 9000 -RA FEW034 SCT047 12/10 Q1004
15:50
V
13 °C 10 km+ - 150° 150° 16 kt METAR EGGP 131450Z 15016KT 9999 VCSH SCT038 13/09 Q1005
15:20
V
13 °C 10 km+ 4.300 ft 150° 150° 16 kt METAR EGGP 131420Z 15016KT 9999 -RA FEW036 BKN043 13/10 Q1005
14:50
V
14 °C 10 km+ - 150° 150° 14 kt METAR EGGP 131350Z 15014KT 9999 SCT044 14/09 Q1006
14:20
V
13 °C 10 km+ - 140° 140° 14 kt METAR EGGP 131320Z 14014KT 9999 SCT025 SCT040 13/10 Q1006
13:50
V
13 °C 10 km+ 4.600 ft 140° 140° 13 kt METAR EGGP 131250Z 14013KT 9999 -RA BKN046 13/10 Q1007
13:20
V
13 °C 10 km+ - 160° 160° 14 kt METAR EGGP 131220Z 16014KT 9999 -RA SCT025 SCT040 13/09 Q1008
12:50
V
14 °C 10 km+ - 170° 170° 14 kt METAR EGGP 131150Z 17014KT 9999 SCT030 14/08 Q1008
12:20
V
13 °C 10 km+ - 170° 170° 13 kt METAR EGGP 131120Z 17013KT 9999 SCT030 13/08 Q1009
11:50
V
14 °C 10 km+ - 170° 170° 13 kt METAR EGGP 131050Z 17013KT 9999 SCT031 14/08 Q1009
11:20
V
14 °C 10 km+ - 180° 180° 13 kt METAR EGGP 131020Z 18013KT 140V200 9999 SCT030 14/08 Q1009
10:50
V
14 °C 10 km+ - 180° 180° 13 kt METAR EGGP 130950Z 18013KT 9999 FEW030 14/08 Q1010
10:20
V
14 °C 10 km+ - 170° 170° 11 kt METAR EGGP 130920Z 17011KT 140V200 9999 FEW040 14/08 Q1010
09:50
V
13 °C 10 km+ - 160° 160° 11 kt METAR EGGP 130850Z 16011KT 140V200 CAVOK 13/08 Q1011
09:20
V
12 °C 10 km+ - 180° 180° 12 kt METAR EGGP 130820Z 18012KT 9999 FEW049 12/08 Q1011
08:50
V
12 °C 10 km+ - 180° 180° 13 kt METAR EGGP 130750Z 18013KT CAVOK 12/08 Q1011
08:20
V
11 °C 10 km+ - 160° 160° 8 kt METAR EGGP 130720Z 16008KT CAVOK 11/08 Q1012
07:50
V
10 °C 10 km+ - 160° 160° 8 kt METAR EGGP 130650Z 16008KT 9999 SCT038 10/07 Q1012
07:20
V
9 °C 10 km+ - 170° 170° 8 kt METAR EGGP 130620Z 17008KT 9999 SCT040 09/06 Q1012
06:50
V
9 °C 10 km+ - 170° 170° 9 kt METAR EGGP 130550Z 17009KT 9999 SCT040 09/06 Q1012
Zgłoś zmianę